ETNL/RLG METAR and TAF weather

Enter ICAO airport designator
Station Type Date Time Source
ETNL METAR 2021/01/22 06:20 UTC NOAA

ETNL 220620Z 18016G33KT 9999 FEW040 BKN050 10/05 Q0981 BLU BLU TEMPO GRN


Station Type Date Time Source
ETNL Decoded METAR 2021/01/22 06:20 UTC NOAA

Laage, Germany (ETNL) 53-55N 012-17E 46M
Jan 22, 2021 - 01:20 AM EST / 2021.01.22 0620 UTC
Wind: from the S (180 degrees) at 18 MPH (16 KT) gusting to 38 MPH (33 KT):0
Visibility: greater than 7 mile(s):0
Sky conditions: mostly cloudy
Temperature: 50 F (10 C)
Dew Point: 41 F (5 C)
Relative Humidity: 71%
Pressure (altimeter): 28.97 in. Hg (0981 hPa)
ob: ETNL 220620Z 18016G33KT 9999 FEW040 BKN050 10/05 Q0981 BLU BLU TEMPO GRN
cycle: 6

Station Type Date Time Source
ETNL TAF 2020/10/28 18:00 UTC NOAA

TAF ETNL 281710Z 2818/2906 20007KT 9999 NSW FEW030 BKN120
TEMPO 2818/2821 19010G20KT 4000 SHRA BKN010TCU
TEMPO 2821/2906 19010G20KT 3000 SHRA BKN010CB BY ETGL

Example: see airport list